utilisation pie
utilisation bar
humidity graph
temperature graph
Station id: f3370e for 2 days

start:   stop:  

day time in temp out temp in RH out RH H quota rule action
2020-01-20 00:13:10 5.4 3.2 81 92 98 h 0
2020-01-20 00:43:22 5.3 3.2 81 93 99 h 0
2020-01-20 01:13:34 5.3 3.1 82 93 98 h 0
2020-01-20 01:43:46 5.2 3.2 82 94 100 h 0
2020-01-20 02:13:58 5.2 3.3 82 94 101 h 0
2020-01-20 02:44:10 5.1 3.5 82 94 102 h 0
2020-01-20 03:14:22 5.1 3.7 83 95 104 h 0
2020-01-20 03:44:34 5.1 4.0 83 95 107 h 0
2020-01-20 04:14:46 5.0 4.3 83 95 108 h 0
2020-01-20 04:44:58 5.0 4.7 84 96 112 h 0
2020-01-20 05:15:10 5.0 4.7 84 96 111 h 0
2020-01-20 05:45:22 5.0 4.6 84 95 110 h 0
2020-01-20 06:15:34 5.0 4.7 84 95 110 h 0
2020-01-20 06:45:46 5.0 4.8 84 95 111 h 0
2020-01-20 07:15:58 5.0 4.9 85 95 111 h 0
2020-01-20 07:46:10 5.0 4.9 85 96 112 h 0
2020-01-20 08:16:22 5.0 5.0 85 96 113 h 0
2020-01-20 08:46:55 5.0 5.1 85 95 112 h 0
2020-01-20 09:17:07 5.1 5.2 85 95 112 h 0
2020-01-20 09:47:18 5.1 5.3 85 95 113 h 0
2020-01-20 10:17:30 5.1 5.4 85 95 114 h 0
2020-01-20 10:47:41 5.1 5.5 85 95 115 h 0
2020-01-20 11:17:53 5.2 5.7 85 94 115 h 0
2020-01-20 11:48:04 5.2 5.9 85 94 116 h 0
2020-01-20 12:18:16 5.2 5.9 85 94 115 h 0
2020-01-20 12:48:27 5.3 6.2 85 93 116 h 0
2020-01-20 13:18:39 5.3 6.1 85 94 116 h 0
2020-01-20 13:48:51 5.4 6.1 85 93 114 h 0
2020-01-20 14:19:02 5.4 6.2 86 93 115 h 0
2020-01-20 14:49:14 5.4 6.3 86 91 113 m
2
2020-01-20 15:19:25 5.9 6.2 82 91 113 h 0
2020-01-20 15:49:37 5.8 6.2 84 91 112 h 0
2020-01-20 16:19:48 5.7 6.2 84 91 112 h 0
2020-01-20 16:51:20 5.7 6.1 85 92 112 h 0
2020-01-20 17:21:32 5.7 6.2 85 92 113 h 0
2020-01-20 17:51:43 5.7 6.2 85 92 112 h 0
2020-01-20 18:21:55 5.7 6.1 85 92 112 h 0
2020-01-20 18:52:07 5.7 6.1 85 92 111 h 0
2020-01-20 19:22:18 5.7 6.1 85 92 111 h 0
2020-01-20 19:52:30 5.7 6.1 85 92 111 h 0
2020-01-20 20:22:41 5.7 6.1 85 92 111 h 0
2020-01-20 20:52:53 5.7 6.1 85 91 110 m
2
2020-01-20 21:23:05 6.0 6.2 82 93 115 h 0
2020-01-20 21:53:16 5.9 6.1 84 92 111 h 0
2020-01-20 22:23:28 5.9 6.1 84 92 111 h 0
2020-01-20 22:53:39 5.9 6.2 85 92 111 h 0
2020-01-20 23:23:51 5.8 6.1 85 92 110 h 0
2020-01-20 23:54:02 5.8 6.1 85 92 110 h 0
2020-01-21 00:24:14 5.8 6.1 85 92 110 h 0
2020-01-21 00:54:26 5.9 6.1 85 92 110 m
2
2020-01-21 01:24:37 6.2 6.1 82 92 111 h 0
2020-01-21 01:54:49 6.1 6.1 84 92 110 h 0
2020-01-21 02:25:01 6.0 6.1 84 92 110 h 0
2020-01-21 02:55:13 6.0 6.0 84 92 109 h 0
2020-01-21 03:25:25 6.0 5.9 85 92 108 h 0
2020-01-21 03:55:37 6.0 5.9 85 92 108 h 0
2020-01-21 04:25:49 6.0 5.9 85 93 109 h 0
2020-01-21 04:56:00 5.9 5.9 85 93 109 m
2
2020-01-21 05:26:12 6.2 5.9 82 93 111 h 0
2020-01-21 05:56:24 6.1 5.9 84 92 108 h 0
2020-01-21 06:26:37 6.0 5.9 84 91 107 h 0
2020-01-21 06:56:48 6.0 6.0 85 91 107 h 0
2020-01-21 07:27:00 6.0 6.1 85 91 108 h 0
2020-01-21 07:57:12 6.0 6.1 85 91 108 h 0
2020-01-21 08:27:24 6.0 6.1 85 91 108 h 0
2020-01-21 08:57:36 6.0 6.1 85 92 109 m
2
2020-01-21 09:27:48 6.4 6.2 81 92 112 h 0
2020-01-21 09:58:00 6.3 6.4 84 93 112 h 0
2020-01-21 10:28:12 6.2 6.5 84 92 111 h 0
2020-01-21 10:58:24 6.2 6.6 84 91 111 h 0
2020-01-21 11:28:35 6.2 6.7 85 91 110 m
2
2020-01-21 11:58:48 6.6 6.7 82 91 112 h 0
2020-01-21 12:28:59 6.5 6.7 84 91 110 h 0
2020-01-21 12:59:11 6.4 6.7 85 95 114 m
2
2020-01-21 13:29:23 6.8 6.7 81 95 116 h 0
2020-01-21 13:59:35 6.7 6.7 84 95 114 h 0
2020-01-21 14:29:47 6.6 6.8 84 97 117 h 0
2020-01-21 14:59:59 6.6 6.8 85 97 116 m
2


2020-01-21 15:45:32 CET